createdAt,value
2023-03-06T00:00:53.062Z,1.00
2023-03-06T00:03:20.082Z,1.30
2023-03-06T00:05:46.973Z,1.10
2023-03-06T00:08:13.590Z,1.10
2023-03-06T00:10:40.470Z,1.10
2023-03-06T00:13:15.995Z,1.27
2023-03-06T00:15:42.657Z,1.40
2023-03-06T00:18:09.530Z,1.20
2023-03-06T00:20:37.201Z,1.30
2023-03-06T00:23:04.017Z,1.55
2023-03-06T00:25:30.693Z,1.43
2023-03-06T00:27:57.437Z,1.17
2023-03-06T00:30:25.041Z,1.45
2023-03-06T00:32:53.942Z,1.17
2023-03-06T00:35:20.783Z,1.05
2023-03-06T00:37:47.419Z,1.00
2023-03-06T00:40:16.970Z,1.80
2023-03-06T00:42:46.162Z,1.73
2023-03-06T00:45:13.415Z,1.30
2023-03-06T00:47:40.687Z,1.20
2023-03-06T00:50:07.944Z,1.40
2023-03-06T00:52:34.853Z,1.30
2023-03-06T00:55:01.425Z,1.10
2023-03-06T00:57:28.110Z,1.20
2023-03-06T00:59:54.687Z,1.13
2023-03-06T01:02:21.466Z,1.40
2023-03-06T01:04:48.031Z,1.15
2023-03-06T01:07:22.083Z,1.23
2023-03-06T01:09:48.701Z,1.50
2023-03-06T01:12:15.441Z,1.20
2023-03-06T01:14:42.045Z,1.05
2023-03-06T01:17:08.564Z,1.10
2023-03-06T01:19:35.090Z,0.88
2023-03-06T01:22:01.571Z,0.80
2023-03-06T01:24:28.571Z,1.23
2023-03-06T01:26:57.446Z,1.02
2023-03-06T01:29:27.598Z,1.20
2023-03-06T01:31:54.201Z,1.13
2023-03-06T01:34:20.824Z,0.70
2023-03-06T01:36:47.343Z,1.40
2023-03-06T01:39:13.934Z,1.23
2023-03-06T01:41:40.476Z,1.25
2023-03-06T01:44:07.004Z,1.25
2023-03-06T01:49:08.376Z,1.30
2023-03-06T01:51:57.772Z,1.27
2023-03-06T01:54:27.935Z,1.23
2023-03-06T01:56:58.025Z,1.17
2023-03-06T01:59:27.896Z,1.05
2023-03-06T02:01:54.912Z,1.00
2023-03-06T02:04:21.513Z,1.23
2023-03-06T02:06:48.763Z,1.13
2023-03-06T02:09:16.494Z,1.20
2023-03-06T02:11:44.268Z,1.20
2023-03-06T02:14:13.384Z,1.42
2023-03-06T02:16:41.792Z,1.27
2023-03-06T02:19:18.758Z,0.98
2023-03-06T02:21:47.683Z,0.90
2023-03-06T02:24:28.157Z,1.10
2023-03-06T02:26:54.950Z,1.10
2023-03-06T02:29:24.566Z,0.90
2023-03-06T02:31:51.169Z,1.05
2023-03-06T02:34:20.817Z,1.00
2023-03-06T02:36:53.169Z,0.90
2023-03-06T02:39:23.392Z,1.42
2023-03-06T02:41:49.905Z,1.00
2023-03-06T02:44:16.454Z,1.10
2023-03-06T02:46:43.012Z,1.00
2023-03-06T02:49:09.589Z,1.20
2023-03-06T02:51:36.092Z,0.88
2023-03-06T02:54:02.698Z,1.23
2023-03-06T02:56:29.354Z,0.88
2023-03-06T02:58:55.861Z,0.80
2023-03-06T03:01:23.011Z,0.57
2023-03-06T03:03:49.580Z,1.20
2023-03-06T03:06:16.285Z,0.90
2023-03-06T03:08:42.919Z,0.80
2023-03-06T03:11:09.481Z,0.70
2023-03-06T03:13:37.551Z,0.60
2023-03-06T03:16:06.817Z,0.80
2023-03-06T03:18:34.064Z,0.90
2023-03-06T03:21:00.645Z,0.90
2023-03-06T03:23:27.419Z,0.90
2023-03-06T03:25:54.399Z,0.80
2023-03-06T03:28:21.002Z,1.10
2023-03-06T03:30:47.583Z,1.00
2023-03-06T03:33:14.200Z,0.43
2023-03-06T03:35:40.733Z,0.63
2023-03-06T03:38:07.256Z,1.17
2023-03-06T03:40:33.786Z,0.73
2023-03-06T03:43:00.321Z,1.33
2023-03-06T03:45:26.954Z,1.10
2023-03-06T03:47:53.526Z,0.87
2023-03-06T03:50:20.212Z,1.33
2023-03-06T03:52:46.778Z,1.60
2023-03-06T03:55:13.307Z,0.93
2023-03-06T03:57:39.888Z,0.90
2023-03-06T04:00:08.128Z,0.77
2023-03-06T04:02:34.657Z,0.90
2023-03-06T04:05:01.259Z,0.80
2023-03-06T04:07:27.875Z,0.77
2023-03-06T04:09:54.462Z,1.00
2023-03-06T04:12:21.031Z,1.20
2023-03-06T04:14:47.607Z,1.10
2023-03-06T04:17:14.135Z,1.10
2023-03-06T04:19:40.672Z,1.00
2023-03-06T04:22:07.282Z,0.80
2023-03-06T04:24:33.814Z,0.70
2023-03-06T04:27:00.305Z,0.90
2023-03-06T04:29:26.842Z,1.05
2023-03-06T04:31:53.343Z,0.90
2023-03-06T04:34:19.889Z,1.27
2023-03-06T04:36:47.593Z,1.10
2023-03-06T04:39:14.554Z,1.00
2023-03-06T04:41:41.777Z,1.10
2023-03-06T04:44:09.040Z,0.93
2023-03-06T04:46:35.697Z,1.50
2023-03-06T04:49:02.217Z,1.03
2023-03-06T04:51:28.885Z,1.10
2023-03-06T04:53:55.395Z,1.00
2023-03-06T04:56:21.927Z,1.00
2023-03-06T04:58:48.644Z,1.20
2023-03-06T05:01:15.334Z,1.13
2023-03-06T05:03:41.925Z,1.08
2023-03-06T05:06:08.508Z,1.58
2023-03-06T05:08:35.156Z,0.90
2023-03-06T05:11:02.391Z,1.10
2023-03-06T05:13:29.048Z,1.40
2023-03-06T05:15:55.584Z,0.93
2023-03-06T05:18:22.243Z,1.10
2023-03-06T05:20:48.874Z,1.10
2023-03-06T05:23:15.540Z,1.15
2023-03-06T05:25:42.253Z,1.30
2023-03-06T05:28:09.135Z,1.20
2023-03-06T05:30:36.447Z,1.48
2023-03-06T05:33:03.038Z,1.10
2023-03-06T05:35:29.708Z,0.98
2023-03-06T05:37:56.517Z,1.20
2023-03-06T05:40:23.098Z,1.00
2023-03-06T05:42:49.646Z,1.38
2023-03-06T05:45:16.320Z,0.70
2023-03-06T05:47:42.878Z,1.88
2023-03-06T05:50:10.648Z,1.50
2023-03-06T05:52:39.522Z,1.70
2023-03-06T05:55:07.436Z,1.50
2023-03-06T05:57:34.037Z,1.20
2023-03-06T06:00:00.614Z,1.15
2023-03-06T06:02:27.210Z,1.37
2023-03-06T06:04:53.763Z,1.40
2023-03-06T06:07:20.287Z,1.60
2023-03-06T06:09:46.852Z,1.25
2023-03-06T06:12:14.209Z,1.70
2023-03-06T06:14:40.725Z,1.97
2023-03-06T06:17:07.438Z,1.77
2023-03-06T06:19:34.006Z,2.67
2023-03-06T06:22:02.620Z,2.65
2023-03-06T06:24:29.738Z,2.28
2023-03-06T06:26:58.091Z,3.00
2023-03-06T06:29:26.182Z,3.25
2023-03-06T06:31:53.326Z,2.97
2023-03-06T06:34:20.396Z,2.08
2023-03-06T06:36:46.927Z,2.10
2023-03-06T06:39:18.446Z,2.30
2023-03-06T06:42:02.313Z,2.10
2023-03-06T06:44:34.661Z,1.90
2023-03-06T06:49:52.761Z,1.75
2023-03-06T06:52:19.700Z,2.20
2023-03-06T06:54:46.522Z,1.65
2023-03-06T06:57:13.783Z,2.00
2023-03-06T06:59:40.663Z,1.80
2023-03-06T07:02:07.242Z,2.10
2023-03-06T07:04:33.907Z,2.50
2023-03-06T07:07:01.185Z,1.80
2023-03-06T07:09:30.019Z,1.50
2023-03-06T07:11:56.864Z,1.60
2023-03-06T07:14:23.416Z,1.50
2023-03-06T07:16:50.102Z,1.33
2023-03-06T07:19:16.779Z,1.88
2023-03-06T07:21:43.303Z,1.50
2023-03-06T07:24:09.881Z,1.88
2023-03-06T07:26:36.629Z,1.92
2023-03-06T07:29:03.904Z,1.70
2023-03-06T07:31:30.645Z,1.23
2023-03-06T07:33:57.298Z,1.30
2023-03-06T07:36:24.232Z,1.40
2023-03-06T07:38:50.780Z,1.35
2023-03-06T07:41:20.432Z,1.60
2023-03-06T07:43:48.496Z,1.67
2023-03-06T07:46:15.048Z,1.33
2023-03-06T07:48:42.140Z,1.40
2023-03-06T07:51:13.935Z,1.33
2023-03-06T07:53:40.581Z,1.13
2023-03-06T07:56:08.963Z,1.40
2023-03-06T07:58:36.827Z,1.92
2023-03-06T08:01:17.807Z,1.00
2023-03-06T08:03:44.470Z,1.23
2023-03-06T08:06:16.241Z,1.50
2023-03-06T08:08:44.421Z,1.40
2023-03-06T08:11:12.694Z,1.55
2023-03-06T08:13:39.824Z,2.30
2023-03-06T08:16:07.173Z,1.90
2023-03-06T08:18:34.233Z,1.90
2023-03-06T08:21:06.078Z,1.33
2023-03-06T08:23:33.312Z,2.95
2023-03-06T08:26:02.468Z,1.85
2023-03-06T08:28:29.223Z,1.70
2023-03-06T08:30:56.834Z,1.53
2023-03-06T08:33:23.921Z,1.40
2023-03-06T08:35:50.950Z,1.48
2023-03-06T08:38:17.496Z,1.60
2023-03-06T08:40:44.061Z,1.58
2023-03-06T08:43:13.079Z,1.10
2023-03-06T08:45:40.747Z,1.50
2023-03-06T08:48:07.352Z,1.60
2023-03-06T08:50:33.890Z,1.58
2023-03-06T08:53:01.702Z,1.52
2023-03-06T08:55:28.303Z,1.60
2023-03-06T08:57:54.901Z,1.33
2023-03-06T09:00:21.588Z,1.40
2023-03-06T09:02:48.217Z,1.50
2023-03-06T09:05:14.729Z,1.20
2023-03-06T09:07:42.444Z,1.30
2023-03-06T09:10:14.253Z,1.30
2023-03-06T09:12:49.771Z,1.40
2023-03-06T09:15:18.351Z,1.38
2023-03-06T09:17:44.939Z,1.60
2023-03-06T09:20:12.249Z,1.70
2023-03-06T09:22:39.148Z,1.60
2023-03-06T09:25:06.504Z,1.70
2023-03-06T09:27:35.402Z,1.50
2023-03-06T09:30:02.292Z,1.38
2023-03-06T09:32:28.978Z,1.20
2023-03-06T09:34:55.595Z,1.50
2023-03-06T09:37:22.218Z,1.85
2023-03-06T09:39:48.760Z,1.27
2023-03-06T09:42:20.828Z,1.67
2023-03-06T09:44:52.291Z,1.13
2023-03-06T09:47:25.031Z,1.38
2023-03-06T09:50:13.390Z,1.40
2023-03-06T09:52:46.226Z,1.85
2023-03-06T09:55:19.596Z,1.13
2023-03-06T09:58:01.361Z,1.37
2023-03-06T10:00:33.509Z,1.42
2023-03-06T10:03:38.853Z,2.13
2023-03-06T10:06:13.349Z,1.20
2023-03-06T10:08:49.110Z,1.52
2023-03-06T10:11:21.938Z,1.20
2023-03-06T10:13:51.496Z,1.60
2023-03-06T10:16:30.706Z,0.98
2023-03-06T10:19:02.428Z,0.80
2023-03-06T10:21:43.983Z,1.13
2023-03-06T10:24:28.527Z,1.10
2023-03-06T10:27:00.617Z,1.30
2023-03-06T10:29:47.646Z,1.23
2023-03-06T10:32:47.602Z,1.30
2023-03-06T10:35:22.029Z,1.65
2023-03-06T10:37:49.786Z,1.13
2023-03-06T10:40:20.592Z,0.90
2023-03-06T10:42:49.522Z,2.28
2023-03-06T10:45:18.798Z,1.30
2023-03-06T10:47:46.134Z,1.42
2023-03-06T10:50:34.737Z,0.83
2023-03-06T10:53:05.052Z,1.25
2023-03-06T10:55:34.335Z,0.88
2023-03-06T10:58:21.990Z,1.00
2023-03-06T11:01:01.654Z,0.88
2023-03-06T11:03:28.705Z,0.90
2023-03-06T11:06:15.937Z,0.93
2023-03-06T11:08:44.469Z,1.00
2023-03-06T11:11:22.415Z,0.95
2023-03-06T11:14:07.622Z,1.00
2023-03-06T11:16:34.520Z,1.80
2023-03-06T11:19:08.512Z,1.52
2023-03-06T11:21:36.692Z,1.60
2023-03-06T11:24:07.206Z,1.30
2023-03-06T11:26:39.532Z,1.20
2023-03-06T11:29:12.271Z,1.10
2023-03-06T11:31:46.155Z,1.27
2023-03-06T11:34:27.355Z,1.85
2023-03-06T11:37:12.234Z,1.00
2023-03-06T11:39:51.433Z,1.00
2023-03-06T11:42:44.490Z,1.77
2023-03-06T11:45:37.199Z,1.50
2023-03-06T11:48:03.704Z,1.10
2023-03-06T11:51:15.177Z,1.15
2023-03-06T11:53:41.930Z,1.00
2023-03-06T11:56:56.053Z,1.00
2023-03-06T11:59:53.544Z,1.35
2023-03-06T12:02:23.240Z,1.00
2023-03-06T12:05:00.845Z,0.98
2023-03-06T12:07:33.355Z,0.80
2023-03-06T12:10:25.254Z,1.40
2023-03-06T12:13:19.016Z,0.70
2023-03-06T12:16:17.987Z,0.85
2023-03-06T12:18:52.836Z,1.10
2023-03-06T12:21:42.688Z,1.00
2023-03-06T12:24:31.687Z,1.33
2023-03-06T12:27:33.703Z,0.93
2023-03-06T12:30:03.714Z,1.35
2023-03-06T12:33:00.722Z,1.00
2023-03-06T12:35:39.615Z,0.98
2023-03-06T12:38:30.961Z,1.40
2023-03-06T12:41:24.414Z,1.10
2023-03-06T12:44:12.217Z,0.90
2023-03-06T12:46:43.634Z,1.20
2023-03-06T12:49:23.070Z,1.00
2023-03-06T12:51:57.604Z,0.90
2023-03-06T12:54:27.264Z,1.00
2023-03-06T12:56:54.493Z,0.95
2023-03-06T12:59:53.646Z,1.60
2023-03-06T13:02:36.565Z,1.50
2023-03-06T13:05:14.997Z,1.47
2023-03-06T13:07:53.433Z,1.25
2023-03-06T13:10:33.806Z,1.40
2023-03-06T13:13:08.779Z,1.08
2023-03-06T13:15:38.655Z,0.80
2023-03-06T13:18:23.444Z,0.77
2023-03-06T13:20:56.405Z,0.90
2023-03-06T13:23:29.130Z,0.70
2023-03-06T13:26:09.742Z,0.60
2023-03-06T13:28:50.100Z,0.60
2023-03-06T13:31:28.123Z,0.90
2023-03-06T13:34:39.576Z,0.90
2023-03-06T13:37:23.398Z,0.70
2023-03-06T13:39:56.752Z,0.90
2023-03-06T13:42:26.099Z,0.70
2023-03-06T13:44:53.082Z,0.60
2023-03-06T13:47:21.359Z,0.70
2023-03-06T13:49:48.295Z,0.82
2023-03-06T13:52:29.923Z,0.70
2023-03-06T13:55:06.094Z,0.88
2023-03-06T13:57:54.814Z,0.87
2023-03-06T14:00:32.122Z,1.20
2023-03-06T14:03:35.014Z,2.25
2023-03-06T14:06:01.684Z,1.20
2023-03-06T14:08:30.663Z,1.65
2023-03-06T14:11:18.232Z,1.70
2023-03-06T14:13:54.122Z,1.52
2023-03-06T14:16:29.042Z,1.55
2023-03-06T14:18:57.397Z,1.65
2023-03-06T14:21:31.193Z,1.48
2023-03-06T14:24:03.316Z,1.40
2023-03-06T14:26:40.840Z,1.50
2023-03-06T14:29:19.989Z,1.58
2023-03-06T14:31:49.877Z,1.75
2023-03-06T14:34:29.627Z,1.70
2023-03-06T14:36:58.879Z,1.40
2023-03-06T14:39:25.355Z,1.60
2023-03-06T14:41:51.938Z,1.75
2023-03-06T14:44:23.552Z,1.60
2023-03-06T14:46:57.647Z,1.70
2023-03-06T14:49:25.575Z,1.33
2023-03-06T14:51:56.605Z,1.40
2023-03-06T14:54:29.403Z,1.60
2023-03-06T14:57:13.603Z,1.30
2023-03-06T14:59:55.151Z,1.23
2023-03-06T15:02:24.033Z,1.10
2023-03-06T15:05:24.749Z,1.30
2023-03-06T15:07:53.023Z,1.90
2023-03-06T15:10:30.718Z,1.83
2023-03-06T15:13:18.054Z,1.98
2023-03-06T15:16:13.200Z,1.50
2023-03-06T15:18:53.798Z,1.98
2023-03-06T15:21:22.042Z,1.92
2023-03-06T15:23:50.490Z,1.92
2023-03-06T15:26:31.800Z,2.60
2023-03-06T15:29:22.987Z,2.17
2023-03-06T15:31:49.812Z,2.58
2023-03-06T15:34:23.662Z,2.47
2023-03-06T15:36:55.307Z,1.92
2023-03-06T15:39:40.343Z,2.25
2023-03-06T15:42:20.648Z,2.60
2023-03-06T15:44:54.990Z,2.17
2023-03-06T15:47:22.433Z,2.20
2023-03-06T15:49:52.056Z,2.47
2023-03-06T15:52:22.220Z,2.00
2023-03-06T15:54:49.012Z,1.70
2023-03-06T15:57:24.019Z,2.05
2023-03-06T15:59:51.898Z,2.38
2023-03-06T16:02:20.263Z,2.58
2023-03-06T16:04:47.077Z,2.95
2023-03-06T16:07:14.409Z,3.37
2023-03-06T16:09:41.994Z,3.25
2023-03-06T16:12:17.569Z,3.13
2023-03-06T16:14:49.171Z,2.97
2023-03-06T16:17:16.549Z,3.30
2023-03-06T16:19:43.665Z,3.30
2023-03-06T16:22:10.680Z,3.05
2023-03-06T16:24:37.609Z,3.28
2023-03-06T16:27:04.452Z,3.45
2023-03-06T16:29:31.210Z,3.83
2023-03-06T16:34:39.262Z,4.13
2023-03-06T16:37:06.279Z,4.05
2023-03-06T16:39:32.834Z,4.18
2023-03-06T16:41:59.399Z,3.58
2023-03-06T16:44:26.069Z,3.60
2023-03-06T16:46:53.968Z,3.30
2023-03-06T16:49:24.557Z,3.85
2023-03-06T16:51:53.154Z,4.18
2023-03-06T16:54:20.243Z,3.55
2023-03-06T16:56:46.960Z,3.73
2023-03-06T16:59:13.582Z,3.35
2023-03-06T17:02:21.749Z,3.88
2023-03-06T17:04:48.278Z,4.18
2023-03-06T17:07:16.191Z,5.22
2023-03-06T17:09:43.256Z,5.57
2023-03-06T17:12:09.969Z,9.32
2023-03-06T17:14:38.361Z,8.98
2023-03-06T17:17:07.059Z,10.27
2023-03-06T17:19:33.674Z,10.18
2023-03-06T17:22:00.150Z,7.97
2023-03-06T17:24:27.028Z,7.05
2023-03-06T17:26:53.554Z,4.30
2023-03-06T17:29:20.286Z,5.60
2023-03-06T17:31:47.288Z,2.92
2023-03-06T17:34:13.791Z,2.20
2023-03-06T17:36:42.374Z,3.08
2023-03-06T17:39:08.984Z,1.85
2023-03-06T17:41:35.555Z,1.55
2023-03-06T17:44:02.165Z,1.35
2023-03-06T17:46:28.868Z,1.80
2023-03-06T17:48:55.450Z,1.73
2023-03-06T17:51:22.090Z,1.50
2023-03-06T17:53:49.308Z,1.48
2023-03-06T17:56:16.009Z,1.77
2023-03-06T17:58:42.546Z,1.60
2023-03-06T18:01:17.522Z,1.85
2023-03-06T18:03:46.579Z,1.63
2023-03-06T18:06:15.903Z,1.58
2023-03-06T18:08:42.864Z,1.90
2023-03-06T18:11:10.941Z,2.00
2023-03-06T18:13:40.258Z,1.83
2023-03-06T18:16:08.162Z,2.10
2023-03-06T18:18:34.939Z,2.10
2023-03-06T18:21:06.592Z,1.83
2023-03-06T18:23:33.246Z,2.00
2023-03-06T18:26:14.788Z,2.00
2023-03-06T18:28:44.512Z,1.77
2023-03-06T18:31:21.936Z,1.58
2023-03-06T18:33:49.389Z,1.60
2023-03-06T18:36:16.844Z,1.40
2023-03-06T18:38:45.500Z,1.30
2023-03-06T18:41:13.171Z,1.50
2023-03-06T18:43:40.981Z,1.58
2023-03-06T18:46:08.003Z,1.95
2023-03-06T18:48:35.168Z,2.00
2023-03-06T18:51:07.052Z,1.80
2023-03-06T18:53:33.648Z,2.20
2023-03-06T18:56:00.390Z,2.70
2023-03-06T18:58:27.210Z,2.45
2023-03-06T19:00:53.803Z,2.00
2023-03-06T19:03:22.786Z,2.65
2023-03-06T19:05:49.788Z,2.30
2023-03-06T19:08:17.576Z,2.47
2023-03-06T19:10:46.282Z,2.70
2023-03-06T19:13:13.451Z,2.40
2023-03-06T19:15:45.624Z,2.55
2023-03-06T19:18:18.029Z,3.00
2023-03-06T19:20:45.300Z,3.10
2023-03-06T19:23:11.895Z,3.25
2023-03-06T19:25:38.536Z,3.40
2023-03-06T19:28:05.298Z,4.30
2023-03-06T19:30:31.852Z,3.72
2023-03-06T19:32:58.632Z,3.22
2023-03-06T19:35:26.657Z,4.82
2023-03-06T19:37:54.394Z,7.20
2023-03-06T19:40:21.137Z,9.18
2023-03-06T19:42:47.722Z,8.77
2023-03-06T19:45:14.435Z,9.32
2023-03-06T19:47:41.005Z,8.90
2023-03-06T19:50:08.306Z,7.90
2023-03-06T19:52:36.692Z,6.07
2023-03-06T19:55:03.629Z,6.30
2023-03-06T19:57:30.165Z,9.90
2023-03-06T19:59:58.573Z,9.85
2023-03-06T20:02:27.205Z,8.93
2023-03-06T20:04:54.582Z,8.52
2023-03-06T20:07:21.841Z,12.40
2023-03-06T20:09:50.150Z,12.55
2023-03-06T20:12:16.798Z,10.13
2023-03-06T20:14:43.339Z,6.87
2023-03-06T20:17:09.897Z,7.05
2023-03-06T20:19:36.639Z,6.35
2023-03-06T20:22:03.431Z,7.07
2023-03-06T20:24:30.117Z,7.40
2023-03-06T20:26:58.357Z,7.13
2023-03-06T20:29:28.473Z,6.97
2023-03-06T20:31:56.454Z,8.00
2023-03-06T20:34:23.686Z,7.07
2023-03-06T20:36:50.413Z,7.80
2023-03-06T20:39:19.606Z,8.77
2023-03-06T20:41:46.804Z,9.27
2023-03-06T20:44:19.754Z,10.25
2023-03-06T20:46:46.658Z,9.52
2023-03-06T20:49:13.426Z,11.88
2023-03-06T20:51:40.687Z,11.70
2023-03-06T20:54:09.322Z,11.63
2023-03-06T20:56:37.015Z,13.60
2023-03-06T20:59:03.564Z,13.00
2023-03-06T21:01:35.996Z,13.98
2023-03-06T21:04:06.608Z,14.40
2023-03-06T21:06:33.302Z,13.70
2023-03-06T21:09:00.890Z,13.13
2023-03-06T21:11:27.868Z,12.57
2023-03-06T21:13:54.463Z,13.38
2023-03-06T21:16:22.463Z,11.93
2023-03-06T21:18:49.074Z,12.35
2023-03-06T21:21:21.715Z,12.63
2023-03-06T21:23:48.948Z,10.77
2023-03-06T21:26:22.177Z,10.98
2023-03-06T21:28:49.327Z,10.23
2023-03-06T21:31:18.140Z,11.18
2023-03-06T21:33:45.661Z,8.85
2023-03-06T21:36:12.314Z,9.15
2023-03-06T21:38:39.127Z,7.38
2023-03-06T21:41:14.177Z,8.77
2023-03-06T21:43:41.021Z,11.00
2023-03-06T21:46:08.015Z,9.15
2023-03-06T21:48:34.699Z,7.97
2023-03-06T21:51:27.403Z,8.05
2023-03-06T21:53:54.894Z,7.23
2023-03-06T21:56:23.815Z,8.13
2023-03-06T21:58:50.441Z,7.88
2023-03-06T22:01:20.333Z,8.55
2023-03-06T22:03:46.905Z,8.10
2023-03-06T22:06:15.846Z,9.20
2023-03-06T22:08:42.918Z,8.25
2023-03-06T22:11:12.269Z,8.98
2023-03-06T22:13:38.982Z,8.98
2023-03-06T22:16:05.980Z,9.23
2023-03-06T22:18:32.895Z,9.63
2023-03-06T22:20:59.541Z,9.02
2023-03-06T22:23:26.339Z,9.25
2023-03-06T22:25:52.837Z,9.55
2023-03-06T22:28:19.422Z,9.48
2023-03-06T22:30:46.183Z,9.43
2023-03-06T22:33:12.979Z,9.25
2023-03-06T22:35:39.574Z,8.98
2023-03-06T22:38:06.112Z,8.70
2023-03-06T22:40:33.264Z,8.77
2023-03-06T22:42:59.854Z,8.70
2023-03-06T22:45:27.687Z,8.60
2023-03-06T22:48:02.352Z,9.18
2023-03-06T22:50:35.767Z,8.40
2023-03-06T22:53:02.310Z,8.20
2023-03-06T22:55:28.865Z,9.40
2023-03-06T22:57:55.442Z,9.23
2023-03-06T23:00:22.008Z,9.63
2023-03-06T23:02:48.516Z,9.13
2023-03-06T23:05:15.135Z,8.18
2023-03-06T23:07:41.619Z,7.57
2023-03-06T23:10:08.928Z,7.43
2023-03-06T23:12:35.741Z,6.45
2023-03-06T23:15:02.373Z,6.32
2023-03-06T23:17:28.964Z,6.15
2023-03-06T23:19:55.512Z,6.80
2023-03-06T23:22:22.020Z,6.43
2023-03-06T23:24:48.553Z,6.07
2023-03-06T23:27:15.662Z,6.07
2023-03-06T23:29:42.243Z,5.82
2023-03-06T23:32:08.850Z,5.40
2023-03-06T23:34:36.450Z,5.93
2023-03-06T23:37:03.126Z,6.22
2023-03-06T23:39:29.704Z,6.20
2023-03-06T23:41:56.250Z,6.93
2023-03-06T23:44:22.744Z,6.80
2023-03-06T23:46:49.312Z,6.50
2023-03-06T23:49:15.877Z,6.43
2023-03-06T23:51:42.441Z,5.75
2023-03-06T23:54:09.988Z,5.50
2023-03-06T23:56:36.529Z,5.40
2023-03-06T23:59:03.054Z,5.80
